Terminal Aerodrome Forecast
Issued by NWS

Home | Current Version | Previous Version | Text Only | Print | Product List | Glossary On
Versions: 1 2 3 4 5 6 7 8 9 10 11 12 13 14 15 16 17
000
FTUS43 KOAX 270548
TAFSNY
TAF
KSNY 270548Z 2706/2806 10005KT P6SM BKN100
     FM271000 24008KT P6SM BKN050
     FM271600 32020G31KT P6SM SCT100 BKN200
     FM280000 33015KT P6SM SCT200
     FM280200 30008KT P6SM FEW250=

USA.gov is the U.S. government's official web portal to all federal, state and local government web resources and services.